KMWL/MWL METAR and TAF weather

Enter ICAO airport designator
Station Type Date Time Source
KMWL METAR 2020/09/27 16:27 UTC NOAA

KMWL 271627Z AUTO 18015G26KT 10SM BKN025 28/22 A2972 RMK AO2 PK WND 19026/1618 T02830222


Station Type Date Time Source
KMWL Decoded METAR 2020/09/27 16:27 UTC NOAA

MINERAL WELLS AIRPORT, TX, United States (KMWL) 32-47N 098-04W 284M
Sep 27, 2020 - 12:27 PM EDT / 2020.09.27 1627 UTC
Wind: from the S (180 degrees) at 17 MPH (15 KT) gusting to 30 MPH (26 KT):0
Visibility: 10 mile(s):0
Sky conditions: mostly cloudy
Temperature: 82.9 F (28.3 C)
Dew Point: 72.0 F (22.2 C)
Relative Humidity: 69%
Pressure (altimeter): 29.72 in. Hg (1006 hPa)
ob: KMWL 271627Z AUTO 18015G26KT 10SM BKN025 28/22 A2972 RMK AO2 PK WND 19026/1618 T02830222
cycle: 16

Station Type Date Time Source
KMWL TAF UTC NOAA

Error!

Example: see airport list